sensor_id;sensor_type;location;lat;lon;timestamp;temperature;humidity
21355;DHT22;10835;50.148;19.760;2023-04-01T00:00:51;19.60;51.60
21355;DHT22;10835;50.148;19.760;2023-04-01T00:03:22;19.50;52.00
21355;DHT22;10835;50.148;19.760;2023-04-01T00:05:51;19.70;51.70
21355;DHT22;10835;50.148;19.760;2023-04-01T00:08:23;19.90;51.50
21355;DHT22;10835;50.148;19.760;2023-04-01T00:10:51;19.60;51.70
21355;DHT22;10835;50.148;19.760;2023-04-01T00:13:20;19.70;51.30
21355;DHT22;10835;50.148;19.760;2023-04-01T00:15:49;19.80;51.30
21355;DHT22;10835;50.148;19.760;2023-04-01T00:18:18;20.10;51.20
21355;DHT22;10835;50.148;19.760;2023-04-01T00:20:49;19.90;50.80
21355;DHT22;10835;50.148;19.760;2023-04-01T00:23:17;20.00;50.60
21355;DHT22;10835;50.148;19.760;2023-04-01T00:25:47;19.80;50.40
21355;DHT22;10835;50.148;19.760;2023-04-01T00:28:17;20.40;50.60
21355;DHT22;10835;50.148;19.760;2023-04-01T00:30:45;20.90;49.70
21355;DHT22;10835;50.148;19.760;2023-04-01T00:33:15;21.40;48.90
21355;DHT22;10835;50.148;19.760;2023-04-01T00:35:43;21.40;48.50
21355;DHT22;10835;50.148;19.760;2023-04-01T00:38:13;21.70;48.10
21355;DHT22;10835;50.148;19.760;2023-04-01T00:40:45;21.70;47.70
21355;DHT22;10835;50.148;19.760;2023-04-01T00:43:15;22.00;47.10
21355;DHT22;10835;50.148;19.760;2023-04-01T00:45:47;21.80;47.00
21355;DHT22;10835;50.148;19.760;2023-04-01T00:48:18;21.70;47.20
21355;DHT22;10835;50.148;19.760;2023-04-01T00:50:50;22.20;46.80
21355;DHT22;10835;50.148;19.760;2023-04-01T00:53:21;21.60;46.80
21355;DHT22;10835;50.148;19.760;2023-04-01T00:55:55;21.40;47.40
21355;DHT22;10835;50.148;19.760;2023-04-01T00:58:26;21.50;47.40
21355;DHT22;10835;50.148;19.760;2023-04-01T01:00:55;21.60;47.20
21355;DHT22;10835;50.148;19.760;2023-04-01T01:03:24;21.00;48.10
21355;DHT22;10835;50.148;19.760;2023-04-01T01:06:12;21.20;47.80
21355;DHT22;10835;50.148;19.760;2023-04-01T01:08:58;21.10;48.80
21355;DHT22;10835;50.148;19.760;2023-04-01T01:11:35;20.90;48.50
21355;DHT22;10835;50.148;19.760;2023-04-01T01:14:20;21.40;48.50
21355;DHT22;10835;50.148;19.760;2023-04-01T01:16:54;21.30;48.10
21355;DHT22;10835;50.148;19.760;2023-04-01T01:19:42;21.30;48.40
21355;DHT22;10835;50.148;19.760;2023-04-01T01:22:49;21.10;48.60
21355;DHT22;10835;50.148;19.760;2023-04-01T01:25:32;20.90;48.10
21355;DHT22;10835;50.148;19.760;2023-04-01T01:28:15;21.00;47.90
21355;DHT22;10835;50.148;19.760;2023-04-01T01:30:50;21.00;48.20
21355;DHT22;10835;50.148;19.760;2023-04-01T01:33:44;20.50;49.10
21355;DHT22;10835;50.148;19.760;2023-04-01T01:36:19;20.30;49.40
21355;DHT22;10835;50.148;19.760;2023-04-01T01:38:49;20.00;50.50
21355;DHT22;10835;50.148;19.760;2023-04-01T01:41:20;20.20;50.50
21355;DHT22;10835;50.148;19.760;2023-04-01T01:43:50;19.60;51.10
21355;DHT22;10835;50.148;19.760;2023-04-01T01:46:24;19.50;51.40
21355;DHT22;10835;50.148;19.760;2023-04-01T01:48:54;19.60;51.70
21355;DHT22;10835;50.148;19.760;2023-04-01T01:51:24;20.10;51.20
21355;DHT22;10835;50.148;19.760;2023-04-01T01:53:55;20.30;50.60
21355;DHT22;10835;50.148;19.760;2023-04-01T01:56:27;20.40;50.90
21355;DHT22;10835;50.148;19.760;2023-04-01T01:59:00;20.60;50.10
21355;DHT22;10835;50.148;19.760;2023-04-01T02:01:33;20.70;49.90
21355;DHT22;10835;50.148;19.760;2023-04-01T02:04:10;20.80;49.90
21355;DHT22;10835;50.148;19.760;2023-04-01T02:06:46;20.60;49.80
21355;DHT22;10835;50.148;19.760;2023-04-01T02:09:16;20.70;49.90
21355;DHT22;10835;50.148;19.760;2023-04-01T02:11:47;20.50;50.10
21355;DHT22;10835;50.148;19.760;2023-04-01T02:14:19;20.20;50.50
21355;DHT22;10835;50.148;19.760;2023-04-01T02:16:51;19.90;51.10
21355;DHT22;10835;50.148;19.760;2023-04-01T02:19:24;19.90;51.10
21355;DHT22;10835;50.148;19.760;2023-04-01T02:21:57;20.00;51.40
21355;DHT22;10835;50.148;19.760;2023-04-01T02:24:30;19.90;51.40
21355;DHT22;10835;50.148;19.760;2023-04-01T02:26:59;19.90;51.40
21355;DHT22;10835;50.148;19.760;2023-04-01T02:29:28;19.90;51.40
21355;DHT22;10835;50.148;19.760;2023-04-01T02:31:57;19.90;51.40
21355;DHT22;10835;50.148;19.760;2023-04-01T02:34:29;20.70;50.90
21355;DHT22;10835;50.148;19.760;2023-04-01T02:37:00;20.50;50.50
21355;DHT22;10835;50.148;19.760;2023-04-01T02:39:29;20.50;50.20
21355;DHT22;10835;50.148;19.760;2023-04-01T02:41:57;20.90;50.30
21355;DHT22;10835;50.148;19.760;2023-04-01T02:44:25;21.10;49.60
21355;DHT22;10835;50.148;19.760;2023-04-01T02:46:53;21.20;49.20
21355;DHT22;10835;50.148;19.760;2023-04-01T02:49:22;21.30;49.10
21355;DHT22;10835;50.148;19.760;2023-04-01T02:51:50;21.50;48.80
21355;DHT22;10835;50.148;19.760;2023-04-01T02:54:20;21.10;49.20
21355;DHT22;10835;50.148;19.760;2023-04-01T02:56:48;21.00;49.10
21355;DHT22;10835;50.148;19.760;2023-04-01T02:59:17;21.10;49.30
21355;DHT22;10835;50.148;19.760;2023-04-01T03:01:45;20.90;49.20
21355;DHT22;10835;50.148;19.760;2023-04-01T03:04:13;20.90;49.50
21355;DHT22;10835;50.148;19.760;2023-04-01T03:06:41;21.30;49.10
21355;DHT22;10835;50.148;19.760;2023-04-01T03:09:09;21.50;48.90
21355;DHT22;10835;50.148;19.760;2023-04-01T03:11:39;21.80;48.50
21355;DHT22;10835;50.148;19.760;2023-04-01T03:14:08;22.40;47.80
21355;DHT22;10835;50.148;19.760;2023-04-01T03:16:36;23.00;46.70
21355;DHT22;10835;50.148;19.760;2023-04-01T03:19:04;23.10;46.00
21355;DHT22;10835;50.148;19.760;2023-04-01T03:21:33;23.40;45.90
21355;DHT22;10835;50.148;19.760;2023-04-01T03:24:01;23.40;45.30
21355;DHT22;10835;50.148;19.760;2023-04-01T03:26:29;23.00;46.10
21355;DHT22;10835;50.148;19.760;2023-04-01T03:28:59;22.80;45.90
21355;DHT22;10835;50.148;19.760;2023-04-01T03:31:28;22.60;46.30
21355;DHT22;10835;50.148;19.760;2023-04-01T03:33:57;22.90;46.20
21355;DHT22;10835;50.148;19.760;2023-04-01T03:36:25;22.70;46.10
21355;DHT22;10835;50.148;19.760;2023-04-01T03:38:53;22.40;46.30
21355;DHT22;10835;50.148;19.760;2023-04-01T03:41:32;21.70;47.50
21355;DHT22;10835;50.148;19.760;2023-04-01T03:44:02;21.60;47.90
21355;DHT22;10835;50.148;19.760;2023-04-01T03:46:30;21.60;48.40
21355;DHT22;10835;50.148;19.760;2023-04-01T03:48:58;21.40;48.50
21355;DHT22;10835;50.148;19.760;2023-04-01T03:51:27;21.70;48.50
21355;DHT22;10835;50.148;19.760;2023-04-01T03:53:55;21.60;48.10
21355;DHT22;10835;50.148;19.760;2023-04-01T03:56:23;21.30;48.70
21355;DHT22;10835;50.148;19.760;2023-04-01T03:58:51;20.70;49.20
21355;DHT22;10835;50.148;19.760;2023-04-01T04:01:22;21.00;49.90
21355;DHT22;10835;50.148;19.760;2023-04-01T04:03:55;21.50;49.30
21355;DHT22;10835;50.148;19.760;2023-04-01T04:06:27;21.40;48.40
21355;DHT22;10835;50.148;19.760;2023-04-01T04:08:56;21.70;48.50
21355;DHT22;10835;50.148;19.760;2023-04-01T04:11:25;22.00;48.20
21355;DHT22;10835;50.148;19.760;2023-04-01T04:13:57;22.10;47.70
21355;DHT22;10835;50.148;19.760;2023-04-01T04:16:27;22.60;47.10
21355;DHT22;10835;50.148;19.760;2023-04-01T04:18:59;22.60;46.80
21355;DHT22;10835;50.148;19.760;2023-04-01T04:21:27;23.00;46.30
21355;DHT22;10835;50.148;19.760;2023-04-01T04:23:57;23.20;46.00
21355;DHT22;10835;50.148;19.760;2023-04-01T04:26:27;23.50;45.70
21355;DHT22;10835;50.148;19.760;2023-04-01T04:29:00;23.40;45.30
21355;DHT22;10835;50.148;19.760;2023-04-01T04:31:31;23.90;45.10
21355;DHT22;10835;50.148;19.760;2023-04-01T04:34:00;24.00;44.90
21355;DHT22;10835;50.148;19.760;2023-04-01T04:36:32;24.20;43.80
21355;DHT22;10835;50.148;19.760;2023-04-01T04:39:01;24.20;44.20
21355;DHT22;10835;50.148;19.760;2023-04-01T04:41:31;24.30;44.10
21355;DHT22;10835;50.148;19.760;2023-04-01T04:44:04;24.40;44.50
21355;DHT22;10835;50.148;19.760;2023-04-01T04:46:36;24.40;44.20
21355;DHT22;10835;50.148;19.760;2023-04-01T04:49:13;24.40;43.90
21355;DHT22;10835;50.148;19.760;2023-04-01T04:51:42;24.50;43.70
21355;DHT22;10835;50.148;19.760;2023-04-01T04:54:11;24.60;43.70
21355;DHT22;10835;50.148;19.760;2023-04-01T04:56:51;24.70;44.00
21355;DHT22;10835;50.148;19.760;2023-04-01T04:59:20;24.70;43.70
21355;DHT22;10835;50.148;19.760;2023-04-01T05:02:16;24.80;43.90
21355;DHT22;10835;50.148;19.760;2023-04-01T05:04:45;24.80;44.00
21355;DHT22;10835;50.148;19.760;2023-04-01T05:07:14;24.90;43.40
21355;DHT22;10835;50.148;19.760;2023-04-01T05:09:43;24.90;43.20
21355;DHT22;10835;50.148;19.760;2023-04-01T05:12:13;25.00;43.00
21355;DHT22;10835;50.148;19.760;2023-04-01T05:14:55;25.00;43.00
21355;DHT22;10835;50.148;19.760;2023-04-01T05:17:25;25.00;42.80
21355;DHT22;10835;50.148;19.760;2023-04-01T05:19:53;25.10;42.60
21355;DHT22;10835;50.148;19.760;2023-04-01T05:22:23;25.10;42.70
21355;DHT22;10835;50.148;19.760;2023-04-01T05:24:52;25.10;43.00
21355;DHT22;10835;50.148;19.760;2023-04-01T05:27:21;25.10;43.50
21355;DHT22;10835;50.148;19.760;2023-04-01T05:29:50;25.10;43.50
21355;DHT22;10835;50.148;19.760;2023-04-01T05:32:58;25.10;43.30
21355;DHT22;10835;50.148;19.760;2023-04-01T05:35:26;24.70;43.40
21355;DHT22;10835;50.148;19.760;2023-04-01T05:37:55;24.50;43.90
21355;DHT22;10835;50.148;19.760;2023-04-01T05:40:23;24.40;43.90
21355;DHT22;10835;50.148;19.760;2023-04-01T05:42:51;24.50;44.50
21355;DHT22;10835;50.148;19.760;2023-04-01T05:45:20;24.50;44.60
21355;DHT22;10835;50.148;19.760;2023-04-01T05:48:12;24.60;44.20
21355;DHT22;10835;50.148;19.760;2023-04-01T05:50:42;24.80;43.70
21355;DHT22;10835;50.148;19.760;2023-04-01T05:53:11;24.90;43.60
21355;DHT22;10835;50.148;19.760;2023-04-01T05:55:42;25.10;43.00
21355;DHT22;10835;50.148;19.760;2023-04-01T05:58:10;25.20;43.40
21355;DHT22;10835;50.148;19.760;2023-04-01T06:00:42;25.10;43.40
21355;DHT22;10835;50.148;19.760;2023-04-01T06:03:14;25.10;43.70
21355;DHT22;10835;50.148;19.760;2023-04-01T06:05:43;24.90;43.60
21355;DHT22;10835;50.148;19.760;2023-04-01T06:08:14;24.80;43.80
21355;DHT22;10835;50.148;19.760;2023-04-01T06:11:04;24.40;43.60
21355;DHT22;10835;50.148;19.760;2023-04-01T06:13:42;23.90;44.80
21355;DHT22;10835;50.148;19.760;2023-04-01T06:16:22;23.40;45.50
21355;DHT22;10835;50.148;19.760;2023-04-01T06:19:12;23.20;46.50
21355;DHT22;10835;50.148;19.760;2023-04-01T06:22:03;22.60;47.20
21355;DHT22;10835;50.148;19.760;2023-04-01T06:24:57;22.40;48.50
21355;DHT22;10835;50.148;19.760;2023-04-01T06:27:42;22.30;48.40
21355;DHT22;10835;50.148;19.760;2023-04-01T06:30:29;22.20;48.90
21355;DHT22;10835;50.148;19.760;2023-04-01T06:33:15;21.70;49.60
21355;DHT22;10835;50.148;19.760;2023-04-01T06:36:06;21.10;50.40
21355;DHT22;10835;50.148;19.760;2023-04-01T06:38:49;20.70;51.50
21355;DHT22;10835;50.148;19.760;2023-04-01T06:41:32;20.60;52.20
21355;DHT22;10835;50.148;19.760;2023-04-01T06:44:14;20.60;52.00
21355;DHT22;10835;50.148;19.760;2023-04-01T06:47:17;20.70;52.50
21355;DHT22;10835;50.148;19.760;2023-04-01T06:50:14;20.60;52.50
21355;DHT22;10835;50.148;19.760;2023-04-01T06:53:12;20.40;53.70
21355;DHT22;10835;50.148;19.760;2023-04-01T06:56:02;19.80;53.70
21355;DHT22;10835;50.148;19.760;2023-04-01T06:58:45;19.60;54.10
21355;DHT22;10835;50.148;19.760;2023-04-01T07:01:19;19.50;54.80
21355;DHT22;10835;50.148;19.760;2023-04-01T07:03:51;19.50;54.80
21355;DHT22;10835;50.148;19.760;2023-04-01T07:06:26;19.50;55.10
21355;DHT22;10835;50.148;19.760;2023-04-01T07:09:02;19.40;55.00
21355;DHT22;10835;50.148;19.760;2023-04-01T07:11:54;19.40;54.90
21355;DHT22;10835;50.148;19.760;2023-04-01T07:14:51;19.30;55.40
21355;DHT22;10835;50.148;19.760;2023-04-01T07:17:24;19.00;55.50
21355;DHT22;10835;50.148;19.760;2023-04-01T07:19:58;19.10;55.60
21355;DHT22;10835;50.148;19.760;2023-04-01T07:22:33;19.40;55.00
21355;DHT22;10835;50.148;19.760;2023-04-01T07:25:33;18.80;55.60
21355;DHT22;10835;50.148;19.760;2023-04-01T07:28:22;18.80;56.10
21355;DHT22;10835;50.148;19.760;2023-04-01T07:31:09;18.80;56.20
21355;DHT22;10835;50.148;19.760;2023-04-01T07:33:45;18.70;57.00
21355;DHT22;10835;50.148;19.760;2023-04-01T07:36:23;18.50;57.10
21355;DHT22;10835;50.148;19.760;2023-04-01T07:38:59;18.70;56.60
21355;DHT22;10835;50.148;19.760;2023-04-01T07:42:05;19.00;55.70
21355;DHT22;10835;50.148;19.760;2023-04-01T07:44:45;19.20;55.70
21355;DHT22;10835;50.148;19.760;2023-04-01T07:47:28;19.30;55.60
21355;DHT22;10835;50.148;19.760;2023-04-01T07:50:09;19.50;55.10
21355;DHT22;10835;50.148;19.760;2023-04-01T07:52:54;19.80;55.10
21355;DHT22;10835;50.148;19.760;2023-04-01T07:55:30;19.90;54.30
21355;DHT22;10835;50.148;19.760;2023-04-01T07:58:06;19.50;54.10
21355;DHT22;10835;50.148;19.760;2023-04-01T08:00:47;19.30;54.70
21355;DHT22;10835;50.148;19.760;2023-04-01T08:03:43;19.00;55.30
21355;DHT22;10835;50.148;19.760;2023-04-01T08:06:19;18.50;56.10
21355;DHT22;10835;50.148;19.760;2023-04-01T08:08:59;18.10;57.30
21355;DHT22;10835;50.148;19.760;2023-04-01T08:12:13;18.00;58.10
21355;DHT22;10835;50.148;19.760;2023-04-01T08:15:14;17.90;59.20
21355;DHT22;10835;50.148;19.760;2023-04-01T08:18:16;18.20;58.00
21355;DHT22;10835;50.148;19.760;2023-04-01T08:20:52;18.70;57.40
21355;DHT22;10835;50.148;19.760;2023-04-01T08:23:24;18.80;57.70
21355;DHT22;10835;50.148;19.760;2023-04-01T08:25:58;18.90;57.20
21355;DHT22;10835;50.148;19.760;2023-04-01T08:28:34;19.30;56.10
21355;DHT22;10835;50.148;19.760;2023-04-01T08:31:16;19.30;55.30
21355;DHT22;10835;50.148;19.760;2023-04-01T08:33:47;19.20;55.70
21355;DHT22;10835;50.148;19.760;2023-04-01T08:36:20;19.10;56.20
21355;DHT22;10835;50.148;19.760;2023-04-01T08:39:04;19.20;56.70
21355;DHT22;10835;50.148;19.760;2023-04-01T08:41:58;19.80;56.00
21355;DHT22;10835;50.148;19.760;2023-04-01T08:47:52;20.80;52.80
21355;DHT22;10835;50.148;19.760;2023-04-01T08:50:31;20.40;52.60
21355;DHT22;10835;50.148;19.760;2023-04-01T08:53:23;20.00;53.60
21355;DHT22;10835;50.148;19.760;2023-04-01T08:56:06;19.70;54.50
21355;DHT22;10835;50.148;19.760;2023-04-01T09:01:52;19.10;56.30
21355;DHT22;10835;50.148;19.760;2023-04-01T09:05:00;19.20;56.30
21355;DHT22;10835;50.148;19.760;2023-04-01T09:07:39;19.50;56.30
21355;DHT22;10835;50.148;19.760;2023-04-01T09:10:38;19.70;56.40
21355;DHT22;10835;50.148;19.760;2023-04-01T09:13:57;19.90;55.90
21355;DHT22;10835;50.148;19.760;2023-04-01T09:16:59;19.90;57.10
21355;DHT22;10835;50.148;19.760;2023-04-01T09:19:54;20.00;55.20
21355;DHT22;10835;50.148;19.760;2023-04-01T09:22:42;19.80;54.90
21355;DHT22;10835;50.148;19.760;2023-04-01T09:25:50;19.50;55.10
21355;DHT22;10835;50.148;19.760;2023-04-01T09:28:28;19.50;55.60
21355;DHT22;10835;50.148;19.760;2023-04-01T09:31:18;19.70;55.40
21355;DHT22;10835;50.148;19.760;2023-04-01T09:34:26;19.40;56.40
21355;DHT22;10835;50.148;19.760;2023-04-01T09:37:18;19.20;56.10
21355;DHT22;10835;50.148;19.760;2023-04-01T09:40:08;19.10;56.40
21355;DHT22;10835;50.148;19.760;2023-04-01T09:43:00;19.20;56.00
21355;DHT22;10835;50.148;19.760;2023-04-01T09:45:42;19.10;56.10
21355;DHT22;10835;50.148;19.760;2023-04-01T09:48:21;19.00;56.60
21355;DHT22;10835;50.148;19.760;2023-04-01T09:51:02;19.30;56.30
21355;DHT22;10835;50.148;19.760;2023-04-01T09:53:57;19.10;56.60
21355;DHT22;10835;50.148;19.760;2023-04-01T09:57:08;18.80;57.90
21355;DHT22;10835;50.148;19.760;2023-04-01T10:03:26;18.50;59.80
21355;DHT22;10835;50.148;19.760;2023-04-01T10:06:33;18.90;60.90
21355;DHT22;10835;50.148;19.760;2023-04-01T10:22:00;19.30;57.40
21355;DHT22;10835;50.148;19.760;2023-04-01T10:31:35;19.10;57.50
21355;DHT22;10835;50.148;19.760;2023-04-01T10:34:38;19.30;58.60
21355;DHT22;10835;50.148;19.760;2023-04-01T10:37:29;19.30;57.20
21355;DHT22;10835;50.148;19.760;2023-04-01T10:40:20;19.60;56.00
21355;DHT22;10835;50.148;19.760;2023-04-01T10:43:36;19.50;57.20
21355;DHT22;10835;50.148;19.760;2023-04-01T10:49:41;19.40;57.60
21355;DHT22;10835;50.148;19.760;2023-04-01T10:52:39;19.00;58.40
21355;DHT22;10835;50.148;19.760;2023-04-01T10:55:37;19.00;58.60
21355;DHT22;10835;50.148;19.760;2023-04-01T10:58:57;19.50;58.80
21355;DHT22;10835;50.148;19.760;2023-04-01T11:06:06;19.60;56.30
21355;DHT22;10835;50.148;19.760;2023-04-01T11:09:17;19.40;56.50
21355;DHT22;10835;50.148;19.760;2023-04-01T11:12:15;19.40;58.20
21355;DHT22;10835;50.148;19.760;2023-04-01T11:15:07;19.00;59.10
21355;DHT22;10835;50.148;19.760;2023-04-01T11:27:27;19.70;58.60
21355;DHT22;10835;50.148;19.760;2023-04-01T11:30:22;19.50;58.80
21355;DHT22;10835;50.148;19.760;2023-04-01T11:32:59;19.50;59.20
21355;DHT22;10835;50.148;19.760;2023-04-01T11:36:03;19.60;59.00
21355;DHT22;10835;50.148;19.760;2023-04-01T11:38:49;19.60;58.70
21355;DHT22;10835;50.148;19.760;2023-04-01T11:41:43;19.70;58.90
21355;DHT22;10835;50.148;19.760;2023-04-01T11:44:42;19.80;58.00
21355;DHT22;10835;50.148;19.760;2023-04-01T11:47:40;20.00;57.30
21355;DHT22;10835;50.148;19.760;2023-04-01T11:50:21;19.90;57.00
21355;DHT22;10835;50.148;19.760;2023-04-01T11:53:21;19.60;57.80
21355;DHT22;10835;50.148;19.760;2023-04-01T11:55:59;19.50;59.90
21355;DHT22;10835;50.148;19.760;2023-04-01T11:58:54;19.40;60.00
21355;DHT22;10835;50.148;19.760;2023-04-01T12:01:36;19.30;59.70
21355;DHT22;10835;50.148;19.760;2023-04-01T12:04:48;19.50;61.60
21355;DHT22;10835;50.148;19.760;2023-04-01T12:07:39;19.40;60.30
21355;DHT22;10835;50.148;19.760;2023-04-01T12:10:18;19.60;60.80
21355;DHT22;10835;50.148;19.760;2023-04-01T12:12:54;19.50;60.80
21355;DHT22;10835;50.148;19.760;2023-04-01T12:15:34;19.90;61.80
21355;DHT22;10835;50.148;19.760;2023-04-01T12:18:13;20.00;62.00
21355;DHT22;10835;50.148;19.760;2023-04-01T12:20:49;20.00;61.20
21355;DHT22;10835;50.148;19.760;2023-04-01T12:23:37;19.90;62.00
21355;DHT22;10835;50.148;19.760;2023-04-01T12:26:40;20.50;60.90
21355;DHT22;10835;50.148;19.760;2023-04-01T12:29:23;20.80;59.00
21355;DHT22;10835;50.148;19.760;2023-04-01T12:32:03;21.10;58.60
21355;DHT22;10835;50.148;19.760;2023-04-01T12:37:41;20.70;57.80
21355;DHT22;10835;50.148;19.760;2023-04-01T12:40:40;20.70;58.50
21355;DHT22;10835;50.148;19.760;2023-04-01T12:46:21;20.80;58.50
21355;DHT22;10835;50.148;19.760;2023-04-01T12:49:13;20.80;59.10
21355;DHT22;10835;50.148;19.760;2023-04-01T12:55:06;20.70;57.30
21355;DHT22;10835;50.148;19.760;2023-04-01T13:01:00;20.60;57.80
21355;DHT22;10835;50.148;19.760;2023-04-01T13:04:00;20.40;56.70
21355;DHT22;10835;50.148;19.760;2023-04-01T13:06:56;20.90;56.70
21355;DHT22;10835;50.148;19.760;2023-04-01T13:09:37;21.10;55.60
21355;DHT22;10835;50.148;19.760;2023-04-01T13:12:23;20.70;55.80
21355;DHT22;10835;50.148;19.760;2023-04-01T13:15:17;20.30;56.70
21355;DHT22;10835;50.148;19.760;2023-04-01T13:17:53;19.80;57.80
21355;DHT22;10835;50.148;19.760;2023-04-01T13:20:38;19.60;59.00
21355;DHT22;10835;50.148;19.760;2023-04-01T13:23:23;19.70;59.50
21355;DHT22;10835;50.148;19.760;2023-04-01T13:26:01;19.20;59.90
21355;DHT22;10835;50.148;19.760;2023-04-01T13:28:44;19.20;60.10
21355;DHT22;10835;50.148;19.760;2023-04-01T13:31:31;19.20;60.20
21355;DHT22;10835;50.148;19.760;2023-04-01T13:34:20;19.60;59.60
21355;DHT22;10835;50.148;19.760;2023-04-01T13:37:04;19.40;59.50
21355;DHT22;10835;50.148;19.760;2023-04-01T13:39:45;19.20;59.80
21355;DHT22;10835;50.148;19.760;2023-04-01T13:42:22;19.10;60.70
21355;DHT22;10835;50.148;19.760;2023-04-01T13:44:55;19.50;60.00
21355;DHT22;10835;50.148;19.760;2023-04-01T13:50:54;19.20;60.00
21355;DHT22;10835;50.148;19.760;2023-04-01T13:54:00;19.40;59.70
21355;DHT22;10835;50.148;19.760;2023-04-01T13:56:42;19.90;60.20
21355;DHT22;10835;50.148;19.760;2023-04-01T13:59:40;19.90;59.00
21355;DHT22;10835;50.148;19.760;2023-04-01T14:02:49;19.70;58.10
21355;DHT22;10835;50.148;19.760;2023-04-01T14:05:47;19.60;57.90
21355;DHT22;10835;50.148;19.760;2023-04-01T14:08:25;19.60;58.60
21355;DHT22;10835;50.148;19.760;2023-04-01T14:11:09;19.60;58.60
21355;DHT22;10835;50.148;19.760;2023-04-01T14:13:47;19.60;58.40
21355;DHT22;10835;50.148;19.760;2023-04-01T14:16:50;19.50;59.80
21355;DHT22;10835;50.148;19.760;2023-04-01T14:19:39;19.60;58.10
21355;DHT22;10835;50.148;19.760;2023-04-01T14:22:24;19.60;58.60
21355;DHT22;10835;50.148;19.760;2023-04-01T14:25:30;19.80;58.10
21355;DHT22;10835;50.148;19.760;2023-04-01T14:28:13;19.80;58.00
21355;DHT22;10835;50.148;19.760;2023-04-01T14:31:18;19.60;58.40
21355;DHT22;10835;50.148;19.760;2023-04-01T14:33:59;20.00;58.40
21355;DHT22;10835;50.148;19.760;2023-04-01T14:36:47;19.90;57.70
21355;DHT22;10835;50.148;19.760;2023-04-01T14:39:29;19.70;58.30
21355;DHT22;10835;50.148;19.760;2023-04-01T14:42:17;19.60;58.90
21355;DHT22;10835;50.148;19.760;2023-04-01T14:45:07;19.60;59.00
21355;DHT22;10835;50.148;19.760;2023-04-01T14:47:53;19.60;59.00
21355;DHT22;10835;50.148;19.760;2023-04-01T14:50:24;20.30;58.30
21355;DHT22;10835;50.148;19.760;2023-04-01T14:53:12;20.40;57.50
21355;DHT22;10835;50.148;19.760;2023-04-01T14:55:49;20.10;58.00
21355;DHT22;10835;50.148;19.760;2023-04-01T14:58:19;19.90;58.60
21355;DHT22;10835;50.148;19.760;2023-04-01T15:01:01;20.00;58.40
21355;DHT22;10835;50.148;19.760;2023-04-01T15:03:40;19.60;58.90
21355;DHT22;10835;50.148;19.760;2023-04-01T15:06:35;19.40;59.80
21355;DHT22;10835;50.148;19.760;2023-04-01T15:09:10;19.10;61.90
21355;DHT22;10835;50.148;19.760;2023-04-01T15:11:48;18.60;62.10
21355;DHT22;10835;50.148;19.760;2023-04-01T15:17:45;18.10;64.60
21355;DHT22;10835;50.148;19.760;2023-04-01T15:20:50;18.30;63.60
21355;DHT22;10835;50.148;19.760;2023-04-01T15:23:31;18.70;63.10
21355;DHT22;10835;50.148;19.760;2023-04-01T15:26:13;19.10;62.60
21355;DHT22;10835;50.148;19.760;2023-04-01T15:28:53;19.20;61.60
21355;DHT22;10835;50.148;19.760;2023-04-01T15:31:27;18.90;61.40
21355;DHT22;10835;50.148;19.760;2023-04-01T15:34:17;19.00;61.90
21355;DHT22;10835;50.148;19.760;2023-04-01T15:36:53;19.40;60.60
21355;DHT22;10835;50.148;19.760;2023-04-01T15:39:35;19.90;59.30
21355;DHT22;10835;50.148;19.760;2023-04-01T15:42:20;20.30;58.60
21355;DHT22;10835;50.148;19.760;2023-04-01T15:45:05;20.10;57.80
21355;DHT22;10835;50.148;19.760;2023-04-01T15:47:44;20.40;57.70
21355;DHT22;10835;50.148;19.760;2023-04-01T15:50:42;20.00;57.50
21355;DHT22;10835;50.148;19.760;2023-04-01T15:53:43;20.30;57.20
21355;DHT22;10835;50.148;19.760;2023-04-01T15:56:28;21.00;56.60
21355;DHT22;10835;50.148;19.760;2023-04-01T15:59:09;20.30;56.10
21355;DHT22;10835;50.148;19.760;2023-04-01T16:01:48;20.20;56.80
21355;DHT22;10835;50.148;19.760;2023-04-01T16:04:33;20.70;56.10
21355;DHT22;10835;50.148;19.760;2023-04-01T16:07:10;20.20;56.60
21355;DHT22;10835;50.148;19.760;2023-04-01T16:09:59;20.50;57.20
21355;DHT22;10835;50.148;19.760;2023-04-01T16:12:42;20.60;56.70
21355;DHT22;10835;50.148;19.760;2023-04-01T16:15:24;21.40;55.70
21355;DHT22;10835;50.148;19.760;2023-04-01T16:18:25;21.30;54.30
21355;DHT22;10835;50.148;19.760;2023-04-01T16:20:59;21.40;54.40
21355;DHT22;10835;50.148;19.760;2023-04-01T16:23:36;21.50;53.60
21355;DHT22;10835;50.148;19.760;2023-04-01T16:26:12;20.70;54.80
21355;DHT22;10835;50.148;19.760;2023-04-01T16:28:50;20.40;55.70
21355;DHT22;10835;50.148;19.760;2023-04-01T16:31:31;20.80;55.50
21355;DHT22;10835;50.148;19.760;2023-04-01T16:34:04;20.80;55.60
21355;DHT22;10835;50.148;19.760;2023-04-01T16:36:40;20.80;55.20
21355;DHT22;10835;50.148;19.760;2023-04-01T16:39:27;20.70;55.80
21355;DHT22;10835;50.148;19.760;2023-04-01T16:42:22;21.50;55.20
21355;DHT22;10835;50.148;19.760;2023-04-01T16:44:55;21.90;54.60
21355;DHT22;10835;50.148;19.760;2023-04-01T16:47:30;22.40;53.80
21355;DHT22;10835;50.148;19.760;2023-04-01T16:50:06;22.70;53.10
21355;DHT22;10835;50.148;19.760;2023-04-01T16:52:48;22.80;52.50
21355;DHT22;10835;50.148;19.760;2023-04-01T16:55:21;23.30;52.10
21355;DHT22;10835;50.148;19.760;2023-04-01T16:57:55;23.50;51.70
21355;DHT22;10835;50.148;19.760;2023-04-01T17:00:27;23.70;51.20
21355;DHT22;10835;50.148;19.760;2023-04-01T17:03:03;23.70;50.70
21355;DHT22;10835;50.148;19.760;2023-04-01T17:05:49;23.80;50.50
21355;DHT22;10835;50.148;19.760;2023-04-01T17:08:30;23.60;50.80
21355;DHT22;10835;50.148;19.760;2023-04-01T17:11:08;23.80;50.30
21355;DHT22;10835;50.148;19.760;2023-04-01T17:13:46;24.10;49.90
21355;DHT22;10835;50.148;19.760;2023-04-01T17:16:48;24.20;49.50
21355;DHT22;10835;50.148;19.760;2023-04-01T17:19:31;24.00;50.10
21355;DHT22;10835;50.148;19.760;2023-04-01T17:22:11;24.00;49.80
21355;DHT22;10835;50.148;19.760;2023-04-01T17:24:52;24.10;49.80
21355;DHT22;10835;50.148;19.760;2023-04-01T17:27:31;23.70;50.10
21355;DHT22;10835;50.148;19.760;2023-04-01T17:30:17;23.90;50.20
21355;DHT22;10835;50.148;19.760;2023-04-01T17:33:11;24.10;49.90
21355;DHT22;10835;50.148;19.760;2023-04-01T17:35:53;24.20;49.80
21355;DHT22;10835;50.148;19.760;2023-04-01T17:38:37;24.10;49.60
21355;DHT22;10835;50.148;19.760;2023-04-01T17:41:16;24.20;49.50
21355;DHT22;10835;50.148;19.760;2023-04-01T17:43:53;24.40;49.10